createdAt,value
2018-10-07T00:00:07.432Z,12.60
2018-10-07T00:02:36.252Z,12.60
2018-10-07T00:05:05.055Z,12.60
2018-10-07T00:07:33.841Z,12.60
2018-10-07T00:10:02.622Z,12.60
2018-10-07T00:12:31.462Z,12.50
2018-10-07T00:15:00.209Z,12.40
2018-10-07T00:17:28.958Z,12.40
2018-10-07T00:19:57.807Z,12.30
2018-10-07T00:22:26.646Z,12.30
2018-10-07T00:24:55.440Z,12.30
2018-10-07T00:27:24.231Z,12.30
2018-10-07T00:29:53.033Z,12.30
2018-10-07T00:32:21.809Z,12.30
2018-10-07T00:34:50.616Z,12.30
2018-10-07T00:37:19.431Z,12.40
2018-10-07T00:39:48.189Z,12.40
2018-10-07T00:42:17.056Z,12.60
2018-10-07T00:44:45.948Z,12.80
2018-10-07T00:47:14.755Z,12.90
2018-10-07T00:49:43.577Z,13.20
2018-10-07T00:52:12.313Z,13.40
2018-10-07T00:54:41.141Z,13.50
2018-10-07T00:57:09.948Z,13.60
2018-10-07T00:59:38.751Z,13.60
2018-10-07T01:02:07.697Z,13.70
2018-10-07T01:04:36.461Z,13.80
2018-10-07T01:07:05.274Z,13.80
2018-10-07T01:09:34.070Z,13.80
2018-10-07T01:12:02.865Z,13.80
2018-10-07T01:14:31.607Z,13.80
2018-10-07T01:17:00.401Z,13.80
2018-10-07T01:19:29.209Z,13.80
2018-10-07T01:21:58.018Z,13.80
2018-10-07T01:24:26.866Z,13.80
2018-10-07T01:26:55.652Z,13.80
2018-10-07T01:29:24.438Z,13.80
2018-10-07T01:31:53.230Z,13.80
2018-10-07T01:34:21.973Z,13.90
2018-10-07T01:36:50.716Z,13.90
2018-10-07T01:39:19.558Z,13.80
2018-10-07T01:41:48.322Z,13.80
2018-10-07T01:44:17.113Z,13.90
2018-10-07T01:46:45.948Z,13.90
2018-10-07T01:49:14.766Z,13.90
2018-10-07T01:51:43.602Z,14.00
2018-10-07T01:54:12.385Z,14.00
2018-10-07T01:56:41.192Z,14.00
2018-10-07T01:59:10.027Z,14.00
2018-10-07T02:01:38.838Z,14.00
2018-10-07T02:04:07.644Z,14.00
2018-10-07T02:06:36.376Z,14.00
2018-10-07T02:09:07.465Z,14.00
2018-10-07T02:11:36.249Z,14.00
2018-10-07T02:14:05.167Z,14.00
2018-10-07T02:16:33.964Z,13.90
2018-10-07T02:19:03.088Z,14.00
2018-10-07T02:21:32.130Z,14.00
2018-10-07T02:24:00.956Z,14.00
2018-10-07T02:26:29.729Z,14.00
2018-10-07T02:28:58.549Z,14.00
2018-10-07T02:31:27.288Z,14.00
2018-10-07T02:33:56.106Z,14.00
2018-10-07T02:36:24.983Z,14.00
2018-10-07T02:38:53.770Z,14.00
2018-10-07T02:41:22.598Z,14.00
2018-10-07T02:43:51.436Z,13.90
2018-10-07T02:46:20.225Z,13.80
2018-10-07T02:48:48.984Z,13.80
2018-10-07T02:51:17.921Z,13.70
2018-10-07T02:53:46.769Z,13.70
2018-10-07T02:56:15.660Z,13.60
2018-10-07T02:58:44.601Z,13.60
2018-10-07T03:01:13.435Z,13.60
2018-10-07T03:03:42.270Z,13.60
2018-10-07T03:06:11.131Z,13.50
2018-10-07T03:08:39.971Z,13.40
2018-10-07T03:11:08.839Z,13.40
2018-10-07T03:13:37.594Z,13.30
2018-10-07T03:16:06.447Z,13.20
2018-10-07T03:18:35.212Z,13.30
2018-10-07T03:21:04.040Z,13.20
2018-10-07T03:23:32.895Z,13.10
2018-10-07T03:26:01.929Z,12.90
2018-10-07T03:28:30.705Z,12.80
2018-10-07T03:30:59.612Z,12.70
2018-10-07T03:33:28.375Z,12.60
2018-10-07T03:35:57.127Z,12.50
2018-10-07T03:38:25.927Z,12.50
2018-10-07T03:40:54.799Z,12.30
2018-10-07T03:43:23.848Z,12.30
2018-10-07T03:45:52.605Z,12.30
2018-10-07T03:48:22.432Z,12.20
2018-10-07T03:50:52.105Z,12.20
2018-10-07T03:53:21.000Z,12.10
2018-10-07T03:55:49.868Z,12.10
2018-10-07T03:58:18.719Z,12.00
2018-10-07T04:00:47.750Z,11.90
2018-10-07T04:03:16.781Z,11.80
2018-10-07T04:05:46.092Z,11.70
2018-10-07T04:08:14.997Z,11.70
2018-10-07T04:10:43.785Z,11.60
2018-10-07T04:13:12.675Z,11.60
2018-10-07T04:15:41.688Z,11.50
2018-10-07T04:18:10.652Z,11.40
2018-10-07T04:20:39.541Z,11.30
2018-10-07T04:23:08.300Z,11.20
2018-10-07T04:25:37.211Z,11.20
2018-10-07T04:28:05.965Z,11.10
2018-10-07T04:30:34.717Z,11.10
2018-10-07T04:33:03.516Z,11.00
2018-10-07T04:35:32.310Z,11.00
2018-10-07T04:38:01.109Z,11.00
2018-10-07T04:40:29.949Z,11.00
2018-10-07T04:42:58.687Z,11.00
2018-10-07T04:45:27.512Z,11.00
2018-10-07T04:47:56.243Z,10.90
2018-10-07T04:50:25.069Z,10.90
2018-10-07T04:52:53.867Z,10.90
2018-10-07T04:55:22.694Z,10.90
2018-10-07T04:57:51.494Z,10.80
2018-10-07T05:00:20.339Z,10.80
2018-10-07T05:02:49.345Z,10.80
2018-10-07T05:05:18.161Z,10.80
2018-10-07T05:07:46.982Z,10.70
2018-10-07T05:10:52.122Z,10.70
2018-10-07T05:13:22.298Z,10.70
2018-10-07T05:15:57.884Z,10.70
2018-10-07T05:18:26.758Z,10.70
2018-10-07T05:20:55.926Z,10.60
2018-10-07T05:23:24.806Z,10.60
2018-10-07T05:25:53.602Z,10.60
2018-10-07T05:28:22.442Z,10.60
2018-10-07T05:30:51.244Z,10.50
2018-10-07T05:33:20.091Z,10.50
2018-10-07T05:35:49.041Z,10.50
2018-10-07T05:38:17.822Z,10.50
2018-10-07T05:40:46.708Z,10.50
2018-10-07T05:43:15.481Z,10.50
2018-10-07T05:45:44.409Z,10.50
2018-10-07T05:48:13.951Z,10.40
2018-10-07T05:50:42.879Z,10.50
2018-10-07T05:53:11.773Z,10.50
2018-10-07T05:55:40.636Z,10.40
2018-10-07T05:58:09.605Z,10.40
2018-10-07T06:00:38.629Z,10.40
2018-10-07T06:03:16.497Z,10.50
2018-10-07T06:05:45.461Z,10.40
2018-10-07T06:08:15.794Z,10.40
2018-10-07T06:10:44.615Z,10.40
2018-10-07T06:13:13.489Z,10.40
2018-10-07T06:15:43.990Z,10.40
2018-10-07T06:18:12.844Z,10.50
2018-10-07T06:20:41.772Z,10.50
2018-10-07T06:23:10.604Z,10.40
2018-10-07T06:25:39.472Z,10.50
2018-10-07T06:28:08.276Z,10.50
2018-10-07T06:30:38.628Z,10.40
2018-10-07T06:33:08.396Z,10.40
2018-10-07T06:35:37.395Z,10.40
2018-10-07T06:38:06.398Z,10.40
2018-10-07T06:40:35.924Z,10.40
2018-10-07T06:43:04.749Z,10.40
2018-10-07T06:45:33.606Z,10.50
2018-10-07T06:48:02.499Z,10.50
2018-10-07T06:50:31.588Z,10.50
2018-10-07T06:53:00.563Z,10.50
2018-10-07T06:55:29.457Z,10.40
2018-10-07T06:57:58.207Z,10.50
2018-10-07T07:00:27.037Z,10.50
2018-10-07T07:02:55.824Z,10.50
2018-10-07T07:05:24.561Z,10.50
2018-10-07T07:07:53.406Z,10.50
2018-10-07T07:10:22.189Z,10.50
2018-10-07T07:12:50.999Z,10.50
2018-10-07T07:15:19.755Z,10.50
2018-10-07T07:17:48.583Z,10.50
2018-10-07T07:20:17.475Z,10.60
2018-10-07T07:22:46.221Z,10.50
2018-10-07T07:25:15.064Z,10.60
2018-10-07T07:27:44.237Z,10.60
2018-10-07T07:30:13.037Z,10.60
2018-10-07T07:32:41.799Z,10.70
2018-10-07T07:35:10.580Z,10.80
2018-10-07T07:37:39.338Z,11.00
2018-10-07T07:40:08.113Z,11.10
2018-10-07T07:42:36.932Z,11.10
2018-10-07T07:45:05.817Z,11.20
2018-10-07T07:47:34.645Z,11.10
2018-10-07T07:50:03.449Z,11.20
2018-10-07T07:52:32.249Z,11.40
2018-10-07T07:55:01.011Z,11.50
2018-10-07T07:57:29.854Z,12.10
2018-10-07T07:59:58.637Z,13.40
2018-10-07T08:02:27.474Z,14.90
2018-10-07T08:04:56.225Z,16.00
2018-10-07T08:07:25.019Z,16.70
2018-10-07T08:09:53.840Z,17.00
2018-10-07T08:12:22.854Z,17.70
2018-10-07T08:14:51.693Z,17.70
2018-10-07T08:17:20.502Z,18.00
2018-10-07T08:19:49.438Z,18.50
2018-10-07T08:22:18.191Z,18.70
2018-10-07T08:24:46.997Z,19.10
2018-10-07T08:27:15.773Z,19.70
2018-10-07T08:29:44.630Z,19.40
2018-10-07T08:32:13.512Z,19.40
2018-10-07T08:34:42.299Z,19.20
2018-10-07T08:37:11.053Z,19.00
2018-10-07T08:39:39.797Z,18.90
2018-10-07T08:42:08.610Z,18.70
2018-10-07T08:44:37.379Z,19.40
2018-10-07T08:47:06.253Z,19.60
2018-10-07T08:49:35.061Z,19.80
2018-10-07T08:52:03.825Z,20.30
2018-10-07T08:54:32.623Z,20.10
2018-10-07T08:57:01.381Z,20.30
2018-10-07T08:59:30.212Z,20.60
2018-10-07T09:01:58.992Z,20.60
2018-10-07T09:04:27.850Z,20.50
2018-10-07T09:06:56.621Z,20.70
2018-10-07T09:09:25.449Z,20.50
2018-10-07T09:11:54.182Z,21.60
2018-10-07T09:14:22.912Z,21.00
2018-10-07T09:16:51.736Z,20.70
2018-10-07T09:19:20.494Z,20.30
2018-10-07T09:21:49.221Z,19.20
2018-10-07T09:24:18.002Z,19.40
2018-10-07T09:26:46.757Z,20.10
2018-10-07T09:29:15.651Z,20.20
2018-10-07T09:31:44.631Z,20.50
2018-10-07T09:34:13.492Z,20.80
2018-10-07T09:36:42.418Z,20.60
2018-10-07T09:39:12.609Z,21.00
2018-10-07T09:41:41.704Z,20.60
2018-10-07T09:44:10.945Z,20.80
2018-10-07T09:46:39.883Z,20.90
2018-10-07T09:49:08.708Z,21.00
2018-10-07T09:51:37.573Z,20.70
2018-10-07T09:54:08.272Z,19.80
2018-10-07T09:56:37.810Z,19.80
2018-10-07T09:59:06.776Z,19.80
2018-10-07T10:01:35.533Z,19.30
2018-10-07T10:04:04.375Z,18.60
2018-10-07T10:06:33.196Z,18.00
2018-10-07T10:09:01.996Z,18.20
2018-10-07T10:11:31.255Z,18.40
2018-10-07T10:14:00.094Z,17.80
2018-10-07T10:16:52.323Z,17.50
2018-10-07T10:19:28.274Z,17.20
2018-10-07T10:22:08.054Z,17.30
2018-10-07T10:24:47.770Z,17.50
2018-10-07T10:28:21.987Z,17.30
2018-10-07T10:31:00.595Z,17.10
2018-10-07T10:33:33.638Z,17.30
2018-10-07T10:36:41.737Z,17.00
2018-10-07T10:39:28.035Z,16.50
2018-10-07T10:42:05.385Z,16.20
2018-10-07T10:44:43.307Z,15.80
2018-10-07T10:47:18.193Z,15.70
2018-10-07T10:49:58.773Z,15.30
2018-10-07T10:52:38.246Z,15.30
2018-10-07T10:55:12.021Z,15.30
2018-10-07T10:57:46.872Z,15.30
2018-10-07T11:00:21.335Z,15.20
2018-10-07T11:03:01.205Z,15.50
2018-10-07T11:06:43.546Z,15.50
2018-10-07T11:09:18.397Z,15.40
2018-10-07T11:11:54.764Z,15.60
2018-10-07T11:14:50.183Z,15.70
2018-10-07T11:19:34.837Z,15.60
2018-10-07T11:23:16.674Z,15.70
2018-10-07T11:25:53.926Z,16.00
2018-10-07T11:28:48.588Z,15.80
2018-10-07T11:31:27.069Z,15.50
2018-10-07T11:34:03.709Z,15.60
2018-10-07T11:36:45.275Z,15.30
2018-10-07T11:39:23.762Z,15.30
2018-10-07T11:43:34.909Z,15.10
2018-10-07T11:46:07.328Z,15.20
2018-10-07T11:48:48.755Z,15.10
2018-10-07T11:51:28.989Z,15.20
2018-10-07T11:53:59.193Z,15.00
2018-10-07T11:56:28.017Z,15.20
2018-10-07T11:58:58.137Z,15.20
2018-10-07T12:01:27.172Z,15.10
2018-10-07T12:03:55.979Z,14.90
2018-10-07T12:06:24.896Z,14.80
2018-10-07T12:08:53.982Z,14.80
2018-10-07T12:11:22.754Z,14.90
2018-10-07T12:13:52.000Z,14.90
2018-10-07T12:16:21.200Z,14.90
2018-10-07T12:18:50.408Z,14.90
2018-10-07T12:21:19.408Z,15.00
2018-10-07T12:23:48.554Z,14.90
2018-10-07T12:26:17.416Z,15.00
2018-10-07T12:28:46.741Z,15.10
2018-10-07T12:31:15.837Z,15.20
2018-10-07T12:33:44.677Z,15.20
2018-10-07T12:36:13.753Z,15.10
2018-10-07T12:38:42.800Z,15.10
2018-10-07T12:41:12.873Z,15.00
2018-10-07T12:43:41.873Z,15.00
2018-10-07T12:46:10.967Z,15.00
2018-10-07T12:48:39.782Z,15.00
2018-10-07T12:51:08.591Z,15.10
2018-10-07T12:53:37.345Z,15.10
2018-10-07T12:56:06.299Z,15.10
2018-10-07T12:58:35.124Z,15.10
2018-10-07T13:01:03.876Z,15.20
2018-10-07T13:03:32.854Z,15.30
2018-10-07T13:06:01.839Z,15.30
2018-10-07T13:08:30.608Z,15.40
2018-10-07T13:10:59.428Z,15.40
2018-10-07T13:13:28.237Z,15.30
2018-10-07T13:15:57.036Z,15.30
2018-10-07T13:18:25.896Z,15.30
2018-10-07T13:20:54.695Z,15.30
2018-10-07T13:23:23.513Z,15.30
2018-10-07T13:25:52.419Z,15.20
2018-10-07T13:28:21.205Z,15.30
2018-10-07T13:30:50.082Z,15.30
2018-10-07T13:33:18.944Z,15.20
2018-10-07T13:35:47.885Z,15.20
2018-10-07T13:38:16.729Z,15.30
2018-10-07T13:40:45.506Z,15.40
2018-10-07T13:43:14.316Z,15.30
2018-10-07T13:45:43.139Z,15.30
2018-10-07T13:48:11.900Z,15.30
2018-10-07T13:50:40.738Z,15.20
2018-10-07T13:53:09.602Z,15.20
2018-10-07T13:55:38.401Z,15.20
2018-10-07T13:58:07.162Z,15.10
2018-10-07T14:00:35.965Z,15.20
2018-10-07T14:03:04.880Z,15.20
2018-10-07T14:05:33.719Z,15.30
2018-10-07T14:08:02.513Z,15.30
2018-10-07T14:10:34.973Z,15.30
2018-10-07T14:13:03.820Z,15.40
2018-10-07T14:15:32.603Z,15.40
2018-10-07T14:18:01.440Z,15.40
2018-10-07T14:20:30.192Z,15.30
2018-10-07T14:22:59.014Z,15.40
2018-10-07T14:25:27.781Z,15.60
2018-10-07T14:27:56.635Z,15.60
2018-10-07T14:30:25.479Z,15.60
2018-10-07T14:32:54.293Z,15.60
2018-10-07T14:35:23.056Z,15.60
2018-10-07T14:37:51.851Z,15.70
2018-10-07T14:40:20.667Z,15.60
2018-10-07T14:42:49.525Z,15.60
2018-10-07T14:45:18.221Z,15.60
2018-10-07T14:47:47.036Z,15.60
2018-10-07T14:50:15.809Z,15.70
2018-10-07T14:52:44.631Z,15.50
2018-10-07T14:55:14.310Z,15.30
2018-10-07T14:57:43.538Z,15.40
2018-10-07T15:00:12.881Z,15.30
2018-10-07T15:02:41.633Z,15.30
2018-10-07T15:05:10.487Z,15.20
2018-10-07T15:07:39.257Z,15.10
2018-10-07T15:10:08.109Z,15.00
2018-10-07T15:12:36.999Z,14.90
2018-10-07T15:15:05.901Z,14.80
2018-10-07T15:17:34.910Z,14.70
2018-10-07T15:20:03.686Z,14.70
2018-10-07T15:22:32.552Z,14.70
2018-10-07T15:25:01.381Z,14.50
2018-10-07T15:27:30.161Z,14.40
2018-10-07T15:29:59.030Z,14.30
2018-10-07T15:32:27.811Z,14.30
2018-10-07T15:34:56.581Z,14.30
2018-10-07T15:37:25.360Z,14.30
2018-10-07T15:39:54.145Z,14.20
2018-10-07T15:42:22.928Z,14.10
2018-10-07T15:44:51.748Z,14.00
2018-10-07T15:47:20.561Z,13.90
2018-10-07T15:49:49.382Z,13.90
2018-10-07T15:52:18.256Z,13.90
2018-10-07T15:54:47.073Z,13.90
2018-10-07T15:57:15.892Z,13.80
2018-10-07T15:59:44.684Z,13.90
2018-10-07T16:02:13.510Z,13.80
2018-10-07T16:04:42.273Z,13.80
2018-10-07T16:07:11.060Z,13.70
2018-10-07T16:09:39.851Z,13.70
2018-10-07T16:12:08.702Z,13.60
2018-10-07T16:14:37.461Z,13.60
2018-10-07T16:17:06.362Z,13.50
2018-10-07T16:19:35.113Z,13.40
2018-10-07T16:22:03.935Z,13.30
2018-10-07T16:24:32.782Z,13.10
2018-10-07T16:27:01.548Z,12.90
2018-10-07T16:29:30.490Z,12.80
2018-10-07T16:31:59.342Z,12.80
2018-10-07T16:34:28.137Z,12.70
2018-10-07T16:36:56.969Z,12.60
2018-10-07T16:39:25.749Z,12.40
2018-10-07T16:41:54.515Z,12.30
2018-10-07T16:44:23.318Z,12.20
2018-10-07T16:46:52.093Z,12.20
2018-10-07T16:49:20.886Z,12.10
2018-10-07T16:51:49.702Z,11.90
2018-10-07T16:54:18.458Z,11.80
2018-10-07T16:56:47.250Z,11.60
2018-10-07T16:59:15.999Z,11.50
2018-10-07T17:01:44.757Z,11.40
2018-10-07T17:04:13.757Z,11.20
2018-10-07T17:06:42.758Z,11.10
2018-10-07T17:09:11.638Z,11.00
2018-10-07T17:11:40.442Z,11.00
2018-10-07T17:14:09.256Z,10.80
2018-10-07T17:16:38.123Z,10.70
2018-10-07T17:19:07.268Z,10.60
2018-10-07T17:21:36.014Z,10.40
2018-10-07T17:24:04.793Z,10.40
2018-10-07T17:26:33.535Z,10.30
2018-10-07T17:29:02.410Z,10.20
2018-10-07T17:31:31.254Z,10.10
2018-10-07T17:34:00.088Z,10.10
2018-10-07T17:36:28.867Z,10.00
2018-10-07T17:38:57.745Z,9.90
2018-10-07T17:41:26.674Z,9.80
2018-10-07T17:43:55.647Z,9.70
2018-10-07T17:46:24.510Z,9.70
2018-10-07T17:48:53.515Z,9.60
2018-10-07T17:51:22.369Z,9.50
2018-10-07T17:53:51.668Z,9.50
2018-10-07T17:56:20.949Z,9.40
2018-10-07T17:58:52.206Z,9.40
2018-10-07T18:01:28.052Z,9.30
2018-10-07T18:04:01.077Z,9.20
2018-10-07T18:06:40.442Z,9.20
2018-10-07T18:09:10.658Z,9.10
2018-10-07T18:11:40.349Z,9.00
2018-10-07T18:17:02.371Z,8.90
2018-10-07T18:19:31.049Z,8.80
2018-10-07T18:21:59.745Z,8.70
2018-10-07T18:24:28.407Z,8.60
2018-10-07T18:26:57.033Z,8.50
2018-10-07T18:29:25.711Z,8.40
2018-10-07T18:31:54.336Z,8.30
2018-10-07T18:34:23.080Z,8.20
2018-10-07T18:36:51.667Z,8.10
2018-10-07T18:39:20.393Z,8.00
2018-10-07T18:41:49.033Z,7.90
2018-10-07T18:44:17.670Z,7.80
2018-10-07T18:46:46.356Z,7.70
2018-10-07T18:49:15.125Z,7.60
2018-10-07T18:51:43.710Z,7.60
2018-10-07T18:54:12.361Z,7.60
2018-10-07T18:56:41.045Z,7.40
2018-10-07T18:59:09.762Z,7.40
2018-10-07T19:01:38.433Z,7.20
2018-10-07T19:04:07.264Z,7.10
2018-10-07T19:06:36.373Z,7.10
2018-10-07T19:09:07.689Z,7.00
2018-10-07T19:11:36.357Z,6.90
2018-10-07T19:14:05.053Z,6.90
2018-10-07T19:16:33.744Z,6.80
2018-10-07T19:19:02.381Z,6.80
2018-10-07T19:21:31.430Z,6.80
2018-10-07T19:24:00.097Z,6.70
2018-10-07T19:26:28.788Z,6.60
2018-10-07T19:28:57.487Z,6.60
2018-10-07T19:31:26.125Z,6.60
2018-10-07T19:33:54.818Z,6.60
2018-10-07T19:36:23.503Z,6.50
2018-10-07T19:38:52.202Z,6.50
2018-10-07T19:41:20.873Z,6.40
2018-10-07T19:46:43.922Z,6.40
2018-10-07T19:49:13.704Z,6.30
2018-10-07T19:51:43.023Z,6.30
2018-10-07T19:54:13.020Z,6.20
2018-10-07T19:56:41.759Z,6.20
2018-10-07T19:59:10.450Z,6.20
2018-10-07T20:01:39.077Z,6.10
2018-10-07T20:04:07.816Z,6.00
2018-10-07T20:06:36.446Z,6.00
2018-10-07T20:09:07.552Z,5.90
2018-10-07T20:11:36.217Z,5.90
2018-10-07T20:14:05.234Z,5.80
2018-10-07T20:16:34.138Z,5.80
2018-10-07T20:19:03.272Z,5.80
2018-10-07T20:21:32.138Z,5.80
2018-10-07T20:24:01.090Z,5.80
2018-10-07T20:26:30.015Z,5.80
2018-10-07T20:28:58.886Z,5.70
2018-10-07T20:31:27.915Z,5.70
2018-10-07T20:33:56.874Z,5.70
2018-10-07T20:36:25.761Z,5.60
2018-10-07T20:38:54.681Z,5.60
2018-10-07T20:41:24.049Z,5.50
2018-10-07T20:43:53.010Z,5.50
2018-10-07T20:46:22.055Z,5.30
2018-10-07T20:48:57.835Z,5.20
2018-10-07T20:51:26.736Z,5.20
2018-10-07T20:53:55.604Z,5.10
2018-10-07T20:56:24.485Z,5.10
2018-10-07T20:58:53.190Z,5.10
2018-10-07T21:01:21.874Z,5.00
2018-10-07T21:03:50.522Z,5.10
2018-10-07T21:06:19.175Z,5.10
2018-10-07T21:08:47.926Z,5.00
2018-10-07T21:11:16.563Z,5.00
2018-10-07T21:13:45.249Z,4.90
2018-10-07T21:16:13.880Z,4.90
2018-10-07T21:18:49.299Z,4.80
2018-10-07T21:21:17.950Z,4.80
2018-10-07T21:23:46.599Z,4.80
2018-10-07T21:26:15.265Z,4.80
2018-10-07T21:28:43.941Z,4.80
2018-10-07T21:31:12.598Z,4.80
2018-10-07T21:33:41.329Z,4.80
2018-10-07T21:36:09.966Z,4.70
2018-10-07T21:38:38.577Z,4.60
2018-10-07T21:41:07.282Z,4.60
2018-10-07T21:43:35.901Z,4.60
2018-10-07T21:46:04.611Z,4.50
2018-10-07T21:48:33.239Z,4.50
2018-10-07T21:51:01.945Z,4.40
2018-10-07T21:53:30.572Z,4.30
2018-10-07T21:55:59.276Z,4.30
2018-10-07T21:58:27.939Z,4.20
2018-10-07T22:00:56.567Z,4.20
2018-10-07T22:03:25.215Z,4.20
2018-10-07T22:05:53.869Z,4.10
2018-10-07T22:08:22.533Z,4.10
2018-10-07T22:10:51.109Z,4.10
2018-10-07T22:13:19.796Z,4.00
2018-10-07T22:15:48.431Z,4.10
2018-10-07T22:18:17.029Z,4.00
2018-10-07T22:20:45.698Z,4.00
2018-10-07T22:23:14.394Z,4.00
2018-10-07T22:25:43.033Z,4.00
2018-10-07T22:28:12.183Z,4.00
2018-10-07T22:30:41.262Z,4.00
2018-10-07T22:33:10.563Z,4.00
2018-10-07T22:35:39.622Z,4.00
2018-10-07T22:38:08.267Z,4.00
2018-10-07T22:40:36.935Z,3.90
2018-10-07T22:43:05.629Z,3.80
2018-10-07T22:45:34.298Z,3.80
2018-10-07T22:48:02.920Z,3.80
2018-10-07T22:50:31.543Z,3.80
2018-10-07T22:53:00.164Z,3.80
2018-10-07T22:55:28.826Z,3.80
2018-10-07T22:57:57.458Z,3.70
2018-10-07T23:00:26.110Z,3.70
2018-10-07T23:02:54.741Z,3.60
2018-10-07T23:05:23.347Z,3.60
2018-10-07T23:07:52.079Z,3.50
2018-10-07T23:10:20.748Z,3.50
2018-10-07T23:12:49.357Z,3.50
2018-10-07T23:15:18.034Z,3.50
2018-10-07T23:17:46.702Z,3.50
2018-10-07T23:20:15.383Z,3.50
2018-10-07T23:22:43.991Z,3.60
2018-10-07T23:25:12.703Z,3.60
2018-10-07T23:27:41.330Z,3.60
2018-10-07T23:30:10.004Z,3.50
2018-10-07T23:32:38.651Z,3.50
2018-10-07T23:35:07.375Z,3.50
2018-10-07T23:37:36.192Z,3.40
2018-10-07T23:40:05.071Z,3.40
2018-10-07T23:42:33.716Z,3.40
2018-10-07T23:45:02.365Z,3.30
2018-10-07T23:47:31.040Z,3.40
2018-10-07T23:49:59.663Z,3.40
2018-10-07T23:52:28.440Z,3.40
2018-10-07T23:54:57.174Z,3.40
2018-10-07T23:57:25.840Z,3.30
2018-10-07T23:59:54.462Z,3.30
